createdAt,value
2022-08-05T04:00:33.412Z,26.95
2022-08-05T04:01:33.404Z,26.82
2022-08-05T04:02:34.792Z,26.85
2022-08-05T04:03:33.355Z,26.73
2022-08-05T04:04:33.338Z,26.73
2022-08-05T04:05:34.415Z,26.76
2022-08-05T04:06:33.316Z,26.72
2022-08-05T04:07:33.313Z,26.66
2022-08-05T04:08:36.307Z,26.72
2022-08-05T04:09:36.668Z,26.73
2022-08-05T04:10:37.379Z,26.70
2022-08-05T04:11:50.523Z,26.67
2022-08-05T04:13:04.568Z,26.76
2022-08-05T04:14:04.033Z,26.69
2022-08-05T04:15:04.021Z,26.72
2022-08-05T04:16:04.570Z,26.70
2022-08-05T04:17:04.014Z,26.67
2022-08-05T04:18:03.998Z,26.57
2022-08-05T04:19:04.027Z,26.54
2022-08-05T04:20:04.963Z,26.50
2022-08-05T04:21:04.110Z,26.63
2022-08-05T04:22:09.159Z,26.51
2022-08-05T04:23:04.946Z,26.51
2022-08-05T04:24:19.732Z,26.54
2022-08-05T04:25:04.909Z,26.39
2022-08-05T04:26:03.896Z,26.43
2022-08-05T04:27:03.887Z,26.33
2022-08-05T04:28:11.131Z,26.30
2022-08-05T04:29:07.383Z,26.28
2022-08-05T04:30:03.991Z,26.26
2022-08-05T04:31:08.311Z,26.25
2022-08-05T04:32:04.842Z,26.20
2022-08-05T04:33:03.822Z,26.10
2022-08-05T04:34:18.397Z,26.21
2022-08-05T04:35:17.624Z,26.20
2022-08-05T04:36:11.151Z,26.28
2022-08-05T04:37:04.905Z,26.13
2022-08-05T04:38:06.745Z,26.13
2022-08-05T04:39:03.810Z,26.01
2022-08-05T04:40:03.748Z,26.05
2022-08-05T04:41:03.735Z,25.97
2022-08-05T04:42:03.884Z,25.92
2022-08-05T04:43:03.726Z,25.92
2022-08-05T04:44:09.434Z,25.85
2022-08-05T04:45:04.700Z,25.85
2022-08-05T04:46:08.704Z,25.87
2022-08-05T04:47:09.099Z,25.79
2022-08-05T04:48:04.658Z,25.90
2022-08-05T04:49:03.745Z,25.83
2022-08-05T04:50:11.230Z,25.80
2022-08-05T04:51:11.083Z,25.82
2022-08-05T04:52:04.610Z,25.79
2022-08-05T04:53:03.602Z,25.82
2022-08-05T04:54:03.604Z,25.83
2022-08-05T04:55:14.254Z,25.77
2022-08-05T04:56:33.028Z,25.87
2022-08-05T04:57:09.610Z,25.88
2022-08-05T04:58:03.559Z,25.80
2022-08-05T04:59:21.722Z,25.97
2022-08-05T05:00:04.524Z,25.97
2022-08-05T05:01:03.576Z,25.91
2022-08-05T05:02:35.575Z,25.92
2022-08-05T05:03:04.539Z,25.85
2022-08-05T05:04:03.496Z,25.87
2022-08-05T05:05:03.509Z,25.85
2022-08-05T05:06:40.020Z,25.83
2022-08-05T05:07:04.450Z,25.91
2022-08-05T05:08:14.459Z,25.87
2022-08-05T05:09:05.612Z,25.88
2022-08-05T05:10:03.411Z,25.83
2022-08-05T05:11:03.409Z,25.91
2022-08-05T05:12:03.389Z,26.01
2022-08-05T05:13:04.051Z,25.90
2022-08-05T05:14:03.399Z,25.87
2022-08-05T05:15:03.726Z,25.95
2022-08-05T05:16:06.040Z,25.97
2022-08-05T05:17:03.734Z,26.05
2022-08-05T05:18:03.323Z,26.09
2022-08-05T05:19:18.619Z,26.05
2022-08-05T05:20:04.307Z,26.02
2022-08-05T05:21:03.711Z,26.06
2022-08-05T05:22:22.858Z,26.06
2022-08-05T05:23:08.135Z,26.02
2022-08-05T05:24:08.925Z,26.01
2022-08-05T05:25:16.854Z,26.09
2022-08-05T05:26:04.236Z,25.95
2022-08-05T05:27:03.229Z,25.97
2022-08-05T05:28:03.389Z,25.92
2022-08-05T05:29:14.228Z,25.82
2022-08-05T05:30:28.840Z,25.75
2022-08-05T05:31:05.662Z,25.82
2022-08-05T05:32:03.171Z,25.87
2022-08-05T05:33:03.786Z,25.88
2022-08-05T05:34:04.145Z,25.80
2022-08-05T05:35:03.235Z,25.70
2022-08-05T05:36:03.138Z,25.65
2022-08-05T05:37:03.125Z,25.64
2022-08-05T05:38:03.107Z,25.61
2022-08-05T05:39:03.790Z,25.64
2022-08-05T05:40:03.092Z,25.60
2022-08-05T05:41:08.094Z,25.61
2022-08-05T05:42:03.090Z,25.65
2022-08-05T05:43:03.048Z,25.76
2022-08-05T05:44:03.042Z,25.73
2022-08-05T05:45:04.041Z,25.79
2022-08-05T05:46:03.014Z,25.87
2022-08-05T05:47:04.627Z,25.83
2022-08-05T05:48:06.061Z,25.82
2022-08-05T05:49:06.517Z,25.76
2022-08-05T05:50:04.183Z,25.69
2022-08-05T05:51:15.034Z,25.62
2022-08-05T05:52:08.972Z,25.67
2022-08-05T05:53:03.109Z,25.76
2022-08-05T05:54:03.939Z,25.77
2022-08-05T05:55:07.522Z,25.69
2022-08-05T05:56:03.907Z,25.65
2022-08-05T05:57:02.894Z,25.76
2022-08-05T05:58:02.884Z,25.75
2022-08-05T05:59:05.117Z,25.80
2022-08-05T06:00:02.870Z,25.82
2022-08-05T06:01:12.569Z,25.80
2022-08-05T06:02:03.843Z,25.92
2022-08-05T06:03:40.757Z,25.76
2022-08-05T06:04:04.032Z,25.73
2022-08-05T06:05:03.454Z,25.67
2022-08-05T06:06:03.798Z,25.61
2022-08-05T06:07:02.866Z,25.57
2022-08-05T06:08:03.882Z,25.54
2022-08-05T06:09:03.249Z,25.60
2022-08-05T06:10:05.902Z,25.58
2022-08-05T06:11:04.046Z,25.52
2022-08-05T06:12:03.060Z,25.40
2022-08-05T06:13:02.718Z,25.40
2022-08-05T06:14:07.760Z,25.40
2022-08-05T06:15:02.704Z,25.47
2022-08-05T06:16:29.281Z,25.52
2022-08-05T06:17:22.388Z,25.51
2022-08-05T06:18:03.666Z,25.67
2022-08-05T06:19:05.836Z,25.67
2022-08-05T06:20:03.651Z,25.62
2022-08-05T06:21:02.628Z,25.47
2022-08-05T06:22:03.621Z,25.57
2022-08-05T06:23:04.065Z,25.57
2022-08-05T06:24:02.602Z,25.61
2022-08-05T06:25:59.079Z,25.62
2022-08-05T06:26:13.422Z,25.69
2022-08-05T06:27:03.944Z,25.76
2022-08-05T06:28:11.106Z,25.79
2022-08-05T06:29:23.560Z,25.97
2022-08-05T06:30:16.831Z,25.97
2022-08-05T06:31:11.317Z,25.98
2022-08-05T06:32:03.511Z,26.09
2022-08-05T06:33:02.499Z,26.01
2022-08-05T06:34:07.072Z,26.09
2022-08-05T06:35:06.025Z,25.98
2022-08-05T06:36:10.307Z,25.98
2022-08-05T06:37:02.451Z,25.99
2022-08-05T06:38:11.228Z,26.07
2022-08-05T06:39:03.489Z,26.23
2022-08-05T06:40:02.429Z,26.33
2022-08-05T06:41:02.418Z,26.35
2022-08-05T06:42:04.061Z,26.48
2022-08-05T06:43:02.423Z,26.44
2022-08-05T06:44:02.373Z,26.51
2022-08-05T06:45:05.265Z,26.66
2022-08-05T06:46:04.236Z,26.73
2022-08-05T06:47:10.390Z,26.82
2022-08-05T06:48:47.060Z,26.84
2022-08-05T06:49:07.561Z,26.91
2022-08-05T06:50:05.413Z,26.97
2022-08-05T06:51:02.299Z,26.88
2022-08-05T06:52:03.298Z,26.88
2022-08-05T06:53:03.971Z,26.88
2022-08-05T06:54:03.275Z,26.69
2022-08-05T06:55:02.538Z,26.66
2022-08-05T06:56:02.268Z,26.73
2022-08-05T06:57:58.179Z,26.89
2022-08-05T06:58:29.531Z,26.88
2022-08-05T06:59:03.210Z,26.92
2022-08-05T07:00:02.196Z,27.04
2022-08-05T07:01:02.225Z,26.94
2022-08-05T07:02:02.174Z,26.94
2022-08-05T07:03:02.167Z,26.91
2022-08-05T07:04:02.378Z,26.84
2022-08-05T07:05:02.160Z,26.91
2022-08-05T07:06:05.694Z,26.92
2022-08-05T07:07:03.127Z,27.04
2022-08-05T07:08:02.120Z,27.07
2022-08-05T07:09:07.121Z,27.24
2022-08-05T07:10:03.582Z,27.13
2022-08-05T07:11:02.089Z,27.17
2022-08-05T07:12:02.064Z,27.17
2022-08-05T07:13:02.070Z,27.24
2022-08-05T07:14:02.066Z,27.29
2022-08-05T07:15:02.068Z,27.32
2022-08-05T07:16:04.401Z,27.27
2022-08-05T07:18:07.349Z,27.29
2022-08-05T07:18:08.486Z,27.32
2022-08-05T07:19:02.984Z,27.28
2022-08-05T07:21:05.372Z,27.40
2022-08-05T07:22:02.627Z,27.54
2022-08-05T07:23:01.967Z,27.59
2022-08-05T07:24:01.932Z,27.50
2022-08-05T07:25:23.584Z,27.54
2022-08-05T07:26:02.907Z,27.49
2022-08-05T07:27:02.949Z,27.43
2022-08-05T07:28:05.946Z,27.32
2022-08-05T07:29:02.873Z,27.29
2022-08-05T07:30:22.741Z,27.29
2022-08-05T07:31:07.871Z,27.29
2022-08-05T07:32:01.854Z,27.27
2022-08-05T07:33:01.828Z,27.31
2022-08-05T07:34:01.818Z,27.28
2022-08-05T07:36:03.643Z,27.21
2022-08-05T07:36:20.121Z,27.21
2022-08-05T07:37:02.786Z,27.13
2022-08-05T07:38:01.771Z,27.21
2022-08-05T07:39:01.832Z,27.12
2022-08-05T07:40:26.150Z,27.21
2022-08-05T07:41:17.178Z,27.21
2022-08-05T07:42:14.526Z,27.19
2022-08-05T07:43:14.441Z,27.19
2022-08-05T07:44:02.706Z,27.24
2022-08-05T07:45:01.726Z,27.22
2022-08-05T07:46:01.683Z,27.24
2022-08-05T07:47:01.669Z,27.29
2022-08-05T07:48:02.658Z,27.32
2022-08-05T07:49:05.512Z,27.39
2022-08-05T07:50:01.650Z,27.41
2022-08-05T07:51:02.628Z,27.57
2022-08-05T07:52:02.614Z,27.66
2022-08-05T07:53:06.630Z,27.77
2022-08-05T07:54:01.919Z,27.78
2022-08-05T07:55:01.594Z,27.81
2022-08-05T07:56:06.272Z,27.81
2022-08-05T07:57:13.958Z,27.78
2022-08-05T07:58:03.970Z,27.78
2022-08-05T07:59:01.540Z,27.75
2022-08-05T08:00:01.542Z,27.79
2022-08-05T08:01:01.606Z,27.79
2022-08-05T08:02:01.506Z,27.78
2022-08-05T08:03:14.229Z,27.79
2022-08-05T08:04:07.520Z,27.67
2022-08-05T08:05:01.478Z,27.69
2022-08-05T08:06:01.461Z,27.60
2022-08-05T08:07:01.450Z,27.55
2022-08-05T08:08:01.436Z,27.51
2022-08-05T08:09:01.424Z,27.49
2022-08-05T08:10:01.534Z,27.46
2022-08-05T08:11:01.400Z,27.47
2022-08-05T08:12:09.017Z,27.50
2022-08-05T08:13:02.378Z,27.49
2022-08-05T08:14:01.394Z,27.43
2022-08-05T08:15:14.136Z,27.50
2022-08-05T08:16:49.977Z,27.51
2022-08-05T08:17:02.348Z,27.46
2022-08-05T08:18:01.958Z,27.44
2022-08-05T08:19:01.315Z,27.36
2022-08-05T08:20:21.587Z,27.36
2022-08-05T08:21:04.070Z,27.31
2022-08-05T08:22:02.283Z,27.29
2022-08-05T08:23:03.154Z,27.43
2022-08-05T08:24:04.989Z,27.43
2022-08-05T08:25:03.263Z,27.41
2022-08-05T08:26:06.258Z,27.39
2022-08-05T08:27:01.221Z,27.32
2022-08-05T08:28:02.211Z,27.27
2022-08-05T08:29:09.793Z,27.32
2022-08-05T08:30:05.222Z,27.36
2022-08-05T08:31:02.177Z,27.44
2022-08-05T08:32:01.174Z,27.40
2022-08-05T08:33:04.638Z,27.39
2022-08-05T08:34:02.147Z,27.40
2022-08-05T08:35:01.180Z,27.41
2022-08-05T08:36:29.732Z,27.32
2022-08-05T08:37:07.130Z,27.21
2022-08-05T08:38:01.116Z,27.13
2022-08-05T08:39:01.612Z,27.19
2022-08-05T08:40:01.161Z,27.19
2022-08-05T08:41:01.072Z,27.19
2022-08-05T08:42:02.276Z,27.19
2022-08-05T08:45:04.465Z,27.21
2022-08-05T08:45:23.786Z,27.21
2022-08-05T08:45:24.690Z,27.25
2022-08-05T08:46:02.013Z,27.28
2022-08-05T08:47:00.997Z,27.37
2022-08-05T08:48:22.671Z,27.29
2022-08-05T08:50:06.141Z,27.19
2022-08-05T08:50:22.565Z,27.22
2022-08-05T08:51:23.283Z,27.18
2022-08-05T08:52:13.457Z,27.21
2022-08-05T08:53:01.933Z,27.13
2022-08-05T08:54:01.917Z,27.06
2022-08-05T08:55:00.917Z,27.02
2022-08-05T08:56:03.384Z,27.06
2022-08-05T08:57:00.884Z,27.03
2022-08-05T08:58:00.872Z,27.07
2022-08-05T08:59:14.652Z,26.91
2022-08-05T09:00:01.858Z,26.92
2022-08-05T09:01:00.979Z,26.95
2022-08-05T09:02:01.094Z,26.88
2022-08-05T09:03:00.814Z,26.87
2022-08-05T09:04:00.805Z,26.85
2022-08-05T09:05:16.508Z,26.82
2022-08-05T09:06:08.971Z,26.81
2022-08-05T09:07:01.769Z,26.75
2022-08-05T09:08:01.762Z,26.80
2022-08-05T09:09:01.198Z,26.88
2022-08-05T09:10:05.774Z,26.87
2022-08-05T09:11:00.726Z,26.85
2022-08-05T09:12:13.357Z,26.82
2022-08-05T09:13:05.056Z,26.84
2022-08-05T09:14:53.907Z,26.89
2022-08-05T09:15:04.706Z,26.89
2022-08-05T09:16:00.670Z,27.03
2022-08-05T09:17:00.657Z,27.13
2022-08-05T09:18:00.650Z,27.27
2022-08-05T09:19:00.635Z,27.44
2022-08-05T09:20:02.630Z,27.54
2022-08-05T09:21:05.635Z,27.65
2022-08-05T09:22:23.172Z,27.77
2022-08-05T09:23:05.068Z,27.88
2022-08-05T09:24:02.433Z,27.94
2022-08-05T09:25:00.569Z,28.14
2022-08-05T09:26:06.316Z,28.17
2022-08-05T09:27:01.571Z,28.27
2022-08-05T09:28:03.800Z,28.24
2022-08-05T09:29:01.529Z,28.17
2022-08-05T09:30:06.067Z,28.11
2022-08-05T09:31:01.514Z,28.15
2022-08-05T09:32:45.508Z,27.78
2022-08-05T09:33:01.481Z,27.77
2022-08-05T09:34:00.510Z,27.82
2022-08-05T09:35:00.460Z,27.87
2022-08-05T09:36:03.634Z,27.84
2022-08-05T09:37:01.438Z,27.81
2022-08-05T09:38:12.594Z,27.99
2022-08-05T09:39:01.461Z,28.06
2022-08-05T09:40:00.508Z,27.97
2022-08-05T09:41:00.412Z,28.15
2022-08-05T09:42:00.391Z,28.14
2022-08-05T09:43:05.414Z,28.25
2022-08-05T09:44:00.362Z,28.24
2022-08-05T09:45:17.223Z,28.25
2022-08-05T09:46:07.082Z,28.18
2022-08-05T09:47:01.333Z,28.19
2022-08-05T09:48:01.340Z,28.24
2022-08-05T09:49:07.955Z,28.37
2022-08-05T09:50:03.431Z,28.39
2022-08-05T09:51:00.421Z,28.55
2022-08-05T09:52:00.271Z,28.67
2022-08-05T09:53:00.264Z,28.76
2022-08-05T09:54:05.272Z,28.80
2022-08-05T09:55:00.262Z,28.77
2022-08-05T09:56:04.573Z,28.76
2022-08-05T09:57:01.560Z,28.67
2022-08-05T09:58:00.369Z,28.66
2022-08-05T09:59:00.193Z,28.58
2022-08-05T10:00:02.633Z,28.55
2022-08-05T10:01:00.192Z,28.58
2022-08-05T10:02:00.177Z,28.55
2022-08-05T10:03:00.223Z,28.55
2022-08-05T10:04:00.556Z,28.58
2022-08-05T10:05:05.188Z,28.49
2022-08-05T10:06:01.844Z,28.40
2022-08-05T10:07:01.495Z,28.48
2022-08-05T10:08:35.463Z,28.52
2022-08-05T10:09:01.081Z,28.58
2022-08-05T10:10:04.082Z,28.34
2022-08-05T10:11:01.080Z,28.37
2022-08-05T10:12:02.805Z,28.37
2022-08-05T10:13:01.039Z,28.44
2022-08-05T10:14:00.077Z,28.36
2022-08-05T10:15:00.019Z,28.25
2022-08-05T10:16:05.042Z,28.29
2022-08-05T10:16:59.999Z,28.39
2022-08-05T10:18:00.012Z,28.54
2022-08-05T10:19:00.001Z,28.52
2022-08-05T10:20:04.289Z,28.58
2022-08-05T10:21:08.467Z,28.58
2022-08-05T10:22:00.953Z,28.61
2022-08-05T10:22:59.941Z,28.71
2022-08-05T10:24:01.331Z,28.80
2022-08-05T10:24:59.912Z,28.83
2022-08-05T10:25:59.906Z,28.78
2022-08-05T10:27:04.971Z,28.74
2022-08-05T10:28:12.924Z,28.77
2022-08-05T10:29:00.965Z,28.80
2022-08-05T10:30:06.736Z,28.85
2022-08-05T10:32:48.988Z,28.81
2022-08-05T10:32:51.500Z,28.62
2022-08-05T10:33:02.464Z,28.58
2022-08-05T10:33:59.809Z,28.56
2022-08-05T10:35:01.028Z,28.51
2022-08-05T10:36:00.199Z,28.39
2022-08-05T10:36:59.774Z,28.39
2022-08-05T10:38:04.788Z,28.37
2022-08-05T10:38:59.808Z,28.30
2022-08-05T10:40:16.681Z,28.36
2022-08-05T10:41:00.774Z,28.39
2022-08-05T10:42:01.247Z,28.36
2022-08-05T10:42:59.711Z,28.51
2022-08-05T10:43:59.705Z,28.40
2022-08-05T10:44:59.690Z,28.37
2022-08-05T10:46:06.360Z,28.54
2022-08-05T10:47:00.665Z,28.61
2022-08-05T10:48:31.438Z,28.62
2022-08-05T10:49:08.076Z,28.59
2022-08-05T10:50:35.133Z,28.66
2022-08-05T10:51:05.651Z,28.78
2022-08-05T10:52:02.508Z,28.90
2022-08-05T10:52:59.601Z,28.92
2022-08-05T10:54:01.523Z,28.83
2022-08-05T10:55:00.588Z,28.86
2022-08-05T10:56:03.488Z,28.78
2022-08-05T10:57:00.580Z,28.92
2022-08-05T10:57:59.548Z,28.95
2022-08-05T10:59:11.395Z,28.80
2022-08-05T11:00:03.740Z,28.80
2022-08-05T11:01:02.829Z,28.85
2022-08-05T11:02:05.387Z,28.96
2022-08-05T11:03:23.409Z,29.00
2022-08-05T11:04:00.539Z,28.96
2022-08-05T11:04:59.466Z,28.88
2022-08-05T11:05:59.458Z,28.86
2022-08-05T11:06:59.456Z,28.73
2022-08-05T11:08:01.775Z,28.81
2022-08-05T11:09:00.434Z,28.95
2022-08-05T11:10:04.120Z,29.00
2022-08-05T11:11:01.058Z,29.08
2022-08-05T11:11:59.405Z,29.16
2022-08-05T11:13:01.048Z,29.26
2022-08-05T11:13:59.387Z,29.21
2022-08-05T11:15:19.069Z,29.23
2022-08-05T11:16:02.098Z,29.26
2022-08-05T11:17:02.730Z,29.36
2022-08-05T11:18:07.619Z,29.41
2022-08-05T11:19:00.315Z,29.51
2022-08-05T11:20:10.048Z,29.64
2022-08-05T11:21:00.332Z,29.79
2022-08-05T11:21:59.304Z,29.82
2022-08-05T11:23:05.899Z,29.92
2022-08-05T11:24:05.437Z,30.24
2022-08-05T11:25:16.507Z,30.47
2022-08-05T11:26:05.014Z,30.69
2022-08-05T11:27:00.237Z,30.61
2022-08-05T11:28:04.242Z,30.69
2022-08-05T11:29:06.863Z,30.84
2022-08-05T11:30:00.245Z,31.14
2022-08-05T11:30:59.186Z,31.21
2022-08-05T11:32:00.699Z,31.09
2022-08-05T11:32:59.163Z,31.19
2022-08-05T11:33:59.152Z,30.97
2022-08-05T11:34:59.148Z,30.67
2022-08-05T11:36:08.198Z,30.47
2022-08-05T11:37:00.130Z,30.16
2022-08-05T11:38:26.731Z,30.13
2022-08-05T11:39:00.307Z,30.13
2022-08-05T11:40:03.249Z,30.17
2022-08-05T11:41:35.426Z,29.94
2022-08-05T11:42:04.189Z,29.65
2022-08-05T11:42:59.081Z,29.46
2022-08-05T11:44:05.114Z,29.33
2022-08-05T11:45:00.034Z,29.30
2022-08-05T11:46:23.416Z,29.43
2022-08-05T11:47:14.092Z,29.37
2022-08-05T11:48:00.004Z,29.33
2022-08-05T11:48:58.998Z,29.37
2022-08-05T11:49:58.980Z,29.28
2022-08-05T11:50:58.973Z,29.24
2022-08-05T11:51:58.969Z,29.12
2022-08-05T11:52:58.955Z,29.23
2022-08-05T11:54:03.961Z,29.04
2022-08-05T11:54:58.962Z,28.95
2022-08-05T11:55:59.937Z,29.27
2022-08-05T11:56:58.916Z,29.37
2022-08-05T11:58:10.115Z,29.58
2022-08-05T11:58:59.882Z,29.80
2022-08-05T11:59:58.869Z,29.78
2022-08-05T12:00:58.861Z,29.95
2022-08-05T12:01:58.864Z,30.17
2022-08-05T12:02:58.914Z,30.37
2022-08-05T12:03:58.826Z,30.04
2022-08-05T12:04:59.273Z,30.16
2022-08-05T12:05:58.809Z,30.62
2022-08-05T12:07:03.832Z,30.35
2022-08-05T12:08:07.420Z,30.49
2022-08-05T12:08:59.796Z,30.70
2022-08-05T12:10:01.898Z,31.07
2022-08-05T12:10:59.755Z,31.43
2022-08-05T12:11:59.751Z,31.54
2022-08-05T12:12:59.752Z,31.68
2022-08-05T12:14:03.893Z,31.56
2022-08-05T12:14:59.708Z,31.32
2022-08-05T12:15:58.700Z,31.20
2022-08-05T12:16:58.711Z,31.19
2022-08-05T12:18:04.372Z,31.12
2022-08-05T12:18:59.667Z,31.43
2022-08-05T12:20:26.248Z,31.62
2022-08-05T12:20:59.675Z,31.48
2022-08-05T12:21:58.685Z,31.51
2022-08-05T12:22:58.625Z,31.44
2022-08-05T12:24:00.161Z,31.62
2022-08-05T12:24:59.612Z,31.70
2022-08-05T12:25:58.589Z,31.80
2022-08-05T12:26:58.594Z,31.85
2022-08-05T12:27:58.569Z,31.92
2022-08-05T12:28:58.561Z,31.80
2022-08-05T12:29:58.548Z,31.63
2022-08-05T12:31:01.979Z,31.58
2022-08-05T12:31:58.540Z,31.51
2022-08-05T12:33:07.491Z,31.38
2022-08-05T12:33:59.528Z,31.16
2022-08-05T12:34:58.524Z,30.76
2022-08-05T12:35:59.617Z,30.51
2022-08-05T12:36:58.485Z,30.57
2022-08-05T12:37:58.464Z,30.46
2022-08-05T12:38:58.558Z,30.43
2022-08-05T12:39:59.059Z,30.38
2022-08-05T12:40:59.434Z,30.34
2022-08-05T12:41:58.431Z,30.42
2022-08-05T12:42:58.456Z,30.16
2022-08-05T12:43:58.399Z,30.13
2022-08-05T12:44:58.389Z,30.05
2022-08-05T12:46:03.403Z,29.98
2022-08-05T12:46:58.401Z,29.76
2022-08-05T12:48:17.699Z,29.70
2022-08-05T12:48:59.348Z,29.49
2022-08-05T12:50:02.018Z,29.39
2022-08-05T12:50:58.324Z,29.31
2022-08-05T12:52:12.789Z,29.15
2022-08-05T12:52:59.309Z,29.23
2022-08-05T12:53:58.321Z,29.15
2022-08-05T12:54:58.281Z,29.09
2022-08-05T12:55:58.268Z,29.16
2022-08-05T12:56:58.283Z,29.08
2022-08-05T12:58:49.407Z,29.06
2022-08-05T12:59:05.880Z,29.15
2022-08-05T13:01:57.782Z,29.18
2022-08-05T13:02:00.256Z,29.26
2022-08-05T13:02:07.410Z,29.28
2022-08-05T13:02:59.242Z,29.23
2022-08-05T13:03:58.189Z,29.19
2022-08-05T13:04:58.708Z,29.09
2022-08-05T13:05:58.160Z,29.09
2022-08-05T13:06:58.166Z,29.15
2022-08-05T13:08:00.566Z,29.09
2022-08-05T13:08:58.128Z,29.11
2022-08-05T13:09:58.116Z,29.26
2022-08-05T13:10:58.111Z,29.26
2022-08-05T13:12:03.734Z,29.34
2022-08-05T13:12:58.767Z,29.46
2022-08-05T13:14:04.929Z,29.49
2022-08-05T13:15:05.129Z,29.60
2022-08-05T13:15:59.053Z,29.52
2022-08-05T13:16:58.051Z,29.61
2022-08-05T13:17:59.344Z,29.60
2022-08-05T13:18:58.575Z,29.48
2022-08-05T13:19:58.016Z,29.52
2022-08-05T13:20:58.039Z,29.49
2022-08-05T13:21:57.994Z,29.53
2022-08-05T13:22:57.979Z,29.49
2022-08-05T13:23:58.697Z,29.45
2022-08-05T13:25:05.788Z,29.37
2022-08-05T13:25:58.985Z,29.55
2022-08-05T13:26:57.977Z,29.51
2022-08-05T13:27:57.921Z,29.63
2022-08-05T13:28:59.319Z,29.67
2022-08-05T13:30:32.328Z,29.76
2022-08-05T13:30:58.888Z,29.79
2022-08-05T13:32:04.267Z,29.85
2022-08-05T13:33:01.560Z,29.80
2022-08-05T13:34:21.627Z,29.74
2022-08-05T13:34:58.845Z,29.67
2022-08-05T13:35:57.831Z,29.68
2022-08-05T13:36:57.822Z,29.58
2022-08-05T13:38:04.902Z,29.53
2022-08-05T13:38:57.910Z,29.46
2022-08-05T13:40:14.188Z,29.55
2022-08-05T13:40:58.854Z,29.57
2022-08-05T13:41:57.808Z,29.61
2022-08-05T13:42:57.771Z,29.53
2022-08-05T13:43:57.745Z,29.63
2022-08-05T13:44:57.739Z,29.67
2022-08-05T13:45:57.723Z,29.58
2022-08-05T13:47:02.229Z,29.61
2022-08-05T13:48:08.804Z,29.65
2022-08-05T13:49:00.873Z,29.68
2022-08-05T13:49:57.677Z,29.74
2022-08-05T13:51:02.693Z,29.76
2022-08-05T13:51:57.682Z,29.67
2022-08-05T13:52:57.682Z,29.64
2022-08-05T13:53:58.044Z,29.70
2022-08-05T13:54:57.624Z,29.58
2022-08-05T13:56:01.956Z,29.68
2022-08-05T13:56:57.608Z,29.63
2022-08-05T13:57:57.611Z,29.65
2022-08-05T13:58:57.582Z,29.67
2022-08-05T14:00:01.751Z,29.70
2022-08-05T14:00:57.562Z,29.74
2022-08-05T14:02:00.061Z,29.64
2022-08-05T14:02:57.661Z,29.58
2022-08-05T14:04:02.551Z,29.53
2022-08-05T14:05:00.770Z,29.51
2022-08-05T14:06:25.486Z,29.45
2022-08-05T14:07:12.050Z,29.34
2022-08-05T14:08:03.282Z,29.36
2022-08-05T14:08:59.420Z,29.28
2022-08-05T14:09:57.460Z,29.36
2022-08-05T14:11:03.104Z,29.34
2022-08-05T14:12:00.613Z,29.31
2022-08-05T14:12:58.437Z,29.33
2022-08-05T14:13:57.790Z,29.39
2022-08-05T14:14:57.405Z,29.30
2022-08-05T14:16:04.794Z,29.27
2022-08-05T14:17:03.406Z,29.30
2022-08-05T14:17:59.703Z,29.33
2022-08-05T14:18:57.364Z,29.33
2022-08-05T14:20:04.741Z,29.39
2022-08-05T14:20:58.351Z,29.48
2022-08-05T14:22:08.794Z,29.36
2022-08-05T14:22:58.331Z,29.46
2022-08-05T14:23:57.305Z,29.37
2022-08-05T14:24:57.297Z,29.28
2022-08-05T14:25:58.822Z,29.21
2022-08-05T14:27:17.125Z,29.04
2022-08-05T14:28:03.305Z,29.05
2022-08-05T14:28:57.357Z,29.14
2022-08-05T14:29:57.310Z,29.15
2022-08-05T14:30:57.230Z,29.23
2022-08-05T14:32:12.920Z,29.18
2022-08-05T14:32:58.218Z,29.23
2022-08-05T14:34:00.461Z,29.28
2022-08-05T14:34:57.679Z,29.14
2022-08-05T14:35:57.190Z,29.11
2022-08-05T14:36:58.930Z,28.98
2022-08-05T14:37:57.164Z,28.98
2022-08-05T14:39:02.686Z,28.98
2022-08-05T14:39:58.974Z,28.86
2022-08-05T14:40:57.121Z,28.85
2022-08-05T14:42:19.104Z,28.78
2022-08-05T14:42:58.113Z,28.80
2022-08-05T14:44:02.360Z,28.81
2022-08-05T14:44:58.078Z,28.81
2022-08-05T14:45:57.068Z,28.89
2022-08-05T14:46:57.067Z,28.78
2022-08-05T14:48:03.543Z,28.74
2022-08-05T14:48:58.034Z,28.76
2022-08-05T14:50:12.790Z,28.66
2022-08-05T14:50:58.013Z,28.52
2022-08-05T14:51:57.011Z,28.54
2022-08-05T14:52:58.656Z,28.44
2022-08-05T14:54:26.370Z,28.52
2022-08-05T14:54:57.966Z,28.51
2022-08-05T14:55:56.955Z,28.51
2022-08-05T14:56:56.948Z,28.48
2022-08-05T14:57:56.942Z,28.54
2022-08-05T14:58:56.922Z,28.49
2022-08-05T14:59:56.910Z,28.52
2022-08-05T15:01:01.922Z,28.48
2022-08-05T15:01:56.952Z,28.37
2022-08-05T15:02:56.982Z,28.39
2022-08-05T15:03:56.933Z,28.34
2022-08-05T15:04:56.879Z,28.41
2022-08-05T15:06:07.857Z,28.29
2022-08-05T15:06:57.832Z,28.21
2022-08-05T15:08:06.286Z,28.12
2022-08-05T15:09:03.527Z,28.06
2022-08-05T15:09:57.799Z,28.04
2022-08-05T15:10:56.791Z,27.93
2022-08-05T15:12:01.801Z,27.84
2022-08-05T15:13:03.517Z,27.78
2022-08-05T15:13:57.893Z,27.81
2022-08-05T15:14:56.749Z,27.82
2022-08-05T15:15:56.736Z,27.78
2022-08-05T15:16:56.724Z,27.77
2022-08-05T15:17:56.721Z,27.66
2022-08-05T15:18:56.701Z,27.70
2022-08-05T15:19:56.988Z,27.65
2022-08-05T15:20:56.679Z,27.55
2022-08-05T15:21:57.999Z,27.47
2022-08-05T15:23:01.697Z,27.39
2022-08-05T15:23:56.678Z,27.37
2022-08-05T15:24:56.638Z,27.29
2022-08-05T15:25:59.730Z,27.34
2022-08-05T15:26:57.613Z,27.34
2022-08-05T15:27:56.605Z,27.25
2022-08-05T15:28:56.601Z,27.13
2022-08-05T15:29:56.967Z,26.99
2022-08-05T15:30:56.571Z,26.88
2022-08-05T15:31:56.556Z,26.89
2022-08-05T15:32:56.547Z,26.88
2022-08-05T15:34:19.073Z,26.89
2022-08-05T15:34:57.526Z,26.77
2022-08-05T15:35:56.513Z,26.67
2022-08-05T15:36:56.533Z,26.72
2022-08-05T15:38:33.060Z,26.65
2022-08-05T15:40:39.692Z,26.57
2022-08-05T15:41:01.465Z,26.58
2022-08-05T15:41:21.926Z,26.58
2022-08-05T15:41:59.300Z,26.62
2022-08-05T15:43:01.552Z,26.65
2022-08-05T15:43:57.608Z,26.51
2022-08-05T15:45:01.438Z,26.65
2022-08-05T15:46:00.755Z,26.70
2022-08-05T15:46:57.390Z,26.73
2022-08-05T15:47:57.673Z,26.72
2022-08-05T15:49:01.254Z,26.63
2022-08-05T15:49:59.468Z,26.62
2022-08-05T15:50:56.592Z,26.51
2022-08-05T15:52:04.367Z,26.36
2022-08-05T15:53:01.860Z,26.25
2022-08-05T15:53:58.925Z,26.17
2022-08-05T15:54:56.568Z,26.09
2022-08-05T15:56:04.513Z,26.07
2022-08-05T15:56:56.280Z,25.94
2022-08-05T15:57:56.270Z,25.92
2022-08-05T15:58:56.265Z,25.88
2022-08-05T15:59:57.770Z,25.83
2022-08-05T16:01:11.678Z,25.85
2022-08-05T16:01:57.277Z,25.92
2022-08-05T16:02:56.276Z,25.97
2022-08-05T16:03:56.211Z,26.05
2022-08-05T16:04:56.187Z,26.01
2022-08-05T16:05:56.178Z,26.06
2022-08-05T16:07:01.189Z,26.10
2022-08-05T16:07:57.212Z,26.10
2022-08-05T16:08:56.155Z,26.21
2022-08-05T16:09:56.144Z,26.26
2022-08-05T16:10:56.120Z,26.21
2022-08-05T16:11:56.111Z,26.17
2022-08-05T16:12:56.348Z,26.02
2022-08-05T16:13:56.116Z,25.98
2022-08-05T16:14:56.079Z,26.02
2022-08-05T16:15:56.065Z,26.06
2022-08-05T16:16:56.054Z,25.94
2022-08-05T16:18:01.073Z,25.94
2022-08-05T16:18:56.040Z,25.92
2022-08-05T16:20:04.421Z,25.90
2022-08-05T16:20:57.006Z,25.90
2022-08-05T16:21:58.576Z,25.85
2022-08-05T16:22:57.489Z,25.82
2022-08-05T16:24:00.203Z,25.83
2022-08-05T16:24:56.964Z,25.82
2022-08-05T16:25:56.016Z,25.67
2022-08-05T16:26:55.940Z,25.58
2022-08-05T16:28:05.089Z,25.40
2022-08-05T16:29:01.951Z,25.47
2022-08-05T16:29:55.910Z,25.52
2022-08-05T16:30:55.900Z,25.52
2022-08-05T16:31:57.393Z,25.55
2022-08-05T16:32:55.880Z,25.51
2022-08-05T16:33:55.877Z,25.50
2022-08-05T16:34:55.851Z,25.45
2022-08-05T16:35:55.846Z,25.36
2022-08-05T16:36:55.838Z,25.27
2022-08-05T16:38:03.685Z,25.15
2022-08-05T16:38:56.897Z,25.21
2022-08-05T16:40:06.379Z,25.15
2022-08-05T16:41:00.276Z,25.20
2022-08-05T16:42:14.196Z,25.17
2022-08-05T16:42:56.768Z,25.09
2022-08-05T16:43:56.260Z,25.24
2022-08-05T16:44:57.081Z,25.18
2022-08-05T16:46:04.677Z,25.21
2022-08-05T16:46:56.724Z,25.05
2022-08-05T16:47:59.673Z,25.00
2022-08-05T16:48:56.725Z,25.00
2022-08-05T16:49:55.715Z,25.02
2022-08-05T16:51:00.716Z,25.14
2022-08-05T16:51:57.050Z,25.18
2022-08-05T16:52:56.549Z,25.17
2022-08-05T16:54:06.050Z,25.06